createdAt,value
2023-01-13T00:05:01.628Z,21.90
2023-01-13T00:10:07.140Z,21.90
2023-01-13T00:15:13.445Z,21.80
2023-01-13T00:20:19.165Z,21.80
2023-01-13T00:25:23.091Z,21.80
2023-01-13T00:30:26.680Z,21.80
2023-01-13T00:35:31.969Z,21.70
2023-01-13T00:40:35.855Z,21.70
2023-01-13T00:45:40.582Z,21.70
2023-01-13T00:50:45.930Z,21.60
2023-01-13T00:55:49.671Z,21.60
2023-01-13T01:00:53.513Z,21.50
2023-01-13T01:05:59.417Z,21.50
2023-01-13T01:11:05.341Z,21.50
2023-01-13T01:16:13.312Z,21.50
2023-01-13T01:21:19.951Z,21.40
2023-01-13T01:26:27.263Z,21.40
2023-01-13T01:31:34.128Z,21.50
2023-01-13T01:36:40.753Z,21.40
2023-01-13T01:42:04.667Z,21.40
2023-01-13T01:47:08.628Z,21.40
2023-01-13T01:52:19.164Z,21.30
2023-01-13T01:57:30.230Z,21.30
2023-01-13T02:02:34.470Z,21.30
2023-01-13T02:07:42.425Z,21.30
2023-01-13T02:12:47.870Z,21.30
2023-01-13T02:18:19.568Z,21.30
2023-01-13T02:24:21.051Z,21.30
2023-01-13T02:30:12.466Z,21.20
2023-01-13T02:35:27.645Z,21.20
2023-01-13T02:40:39.846Z,21.20
2023-01-13T02:45:53.216Z,21.20
2023-01-13T02:51:03.335Z,21.20
2023-01-13T02:56:09.701Z,21.20
2023-01-13T03:01:15.449Z,21.10
2023-01-13T03:06:40.556Z,21.10
2023-01-13T03:11:57.318Z,21.10
2023-01-13T03:17:17.728Z,21.10
2023-01-13T03:22:31.980Z,21.10
2023-01-13T03:27:48.987Z,21.10
2023-01-13T03:33:01.171Z,21.00
2023-01-13T03:38:11.042Z,21.00
2023-01-13T03:43:39.669Z,21.00
2023-01-13T03:48:47.415Z,21.00
2023-01-13T03:53:57.422Z,21.00
2023-01-13T03:59:06.864Z,21.00
2023-01-13T04:04:19.861Z,21.00
2023-01-13T04:09:33.435Z,21.00
2023-01-13T04:14:38.075Z,21.00
2023-01-13T04:19:43.097Z,21.00
2023-01-13T04:24:46.899Z,21.00
2023-01-13T04:29:50.610Z,21.00
2023-01-13T04:34:55.756Z,20.90
2023-01-13T04:39:59.559Z,20.90
2023-01-13T04:45:03.227Z,20.90
2023-01-13T04:50:10.881Z,20.90
2023-01-13T04:55:14.781Z,21.00
2023-01-13T05:00:23.077Z,21.10
2023-01-13T05:05:28.907Z,21.10
2023-01-13T05:10:32.572Z,21.10
2023-01-13T05:15:53.493Z,21.20
2023-01-13T05:20:58.870Z,21.20
2023-01-13T05:26:03.346Z,21.20
2023-01-13T05:31:07.612Z,21.20
2023-01-13T05:36:12.924Z,21.20
2023-01-13T05:41:34.310Z,21.20
2023-01-13T05:46:38.064Z,21.10
2023-01-13T05:51:43.309Z,21.20
2023-01-13T05:56:47.007Z,21.20
2023-01-13T06:01:50.670Z,21.10
2023-01-13T06:06:56.030Z,21.10
2023-01-13T06:11:59.751Z,21.10
2023-01-13T06:17:03.401Z,21.00
2023-01-13T06:22:17.430Z,21.00
2023-01-13T06:27:22.885Z,21.00
2023-01-13T06:32:33.247Z,21.00
2023-01-13T06:37:39.458Z,21.00
2023-01-13T06:43:01.566Z,21.00
2023-01-13T06:48:06.455Z,21.00
2023-01-13T06:53:12.020Z,21.10
2023-01-13T06:58:15.687Z,21.10
2023-01-13T07:03:21.584Z,21.10
2023-01-13T07:08:26.821Z,21.20
2023-01-13T07:13:48.064Z,21.10
2023-01-13T07:18:52.086Z,21.20
2023-01-13T07:23:57.167Z,21.20
2023-01-13T07:29:00.955Z,21.10
2023-01-13T07:34:05.324Z,21.10
2023-01-13T07:39:10.339Z,21.10
2023-01-13T07:44:14.129Z,21.10
2023-01-13T07:49:18.244Z,21.10
2023-01-13T07:54:39.084Z,21.10
2023-01-13T07:59:43.785Z,21.00
2023-01-13T08:04:47.446Z,21.00
2023-01-13T08:09:55.119Z,21.00
2023-01-13T08:14:58.891Z,21.00
2023-01-13T08:20:02.684Z,21.00
2023-01-13T08:25:09.723Z,21.00
2023-01-13T08:30:13.895Z,21.00
2023-01-13T08:35:18.839Z,21.00
2023-01-13T08:40:24.160Z,21.00
2023-01-13T08:45:27.947Z,20.60
2023-01-13T08:50:31.896Z,20.30
2023-01-13T08:55:37.079Z,20.10
2023-01-13T09:00:41.266Z,20.00
2023-01-13T09:05:45.137Z,19.80
2023-01-13T09:10:50.341Z,19.80
2023-01-13T09:15:56.789Z,19.80
2023-01-13T09:21:01.052Z,19.60
2023-01-13T09:26:06.530Z,19.50
2023-01-13T09:31:10.238Z,19.40
2023-01-13T09:36:13.886Z,19.30
2023-01-13T09:41:46.670Z,19.20
2023-01-13T09:46:55.038Z,19.20
2023-01-13T09:52:07.678Z,19.40
2023-01-13T09:57:17.011Z,19.50
2023-01-13T10:02:42.020Z,19.60
2023-01-13T10:07:52.734Z,19.70
2023-01-13T10:13:16.249Z,19.90
2023-01-13T10:18:33.391Z,19.80
2023-01-13T10:23:55.686Z,19.60
2023-01-13T10:29:01.182Z,19.50
2023-01-13T10:34:05.619Z,19.40
2023-01-13T10:39:16.186Z,19.30
2023-01-13T10:44:21.312Z,19.30
2023-01-13T10:49:36.379Z,19.40
2023-01-13T10:54:54.492Z,19.60
2023-01-13T10:59:59.652Z,19.60
2023-01-13T11:05:23.027Z,19.70
2023-01-13T11:10:31.310Z,19.80
2023-01-13T11:15:45.297Z,19.80
2023-01-13T11:20:52.744Z,19.80
2023-01-13T11:26:04.597Z,19.70
2023-01-13T11:31:20.554Z,19.70
2023-01-13T11:36:32.641Z,19.80
2023-01-13T11:41:46.056Z,19.70
2023-01-13T11:46:53.065Z,19.70
2023-01-13T11:52:05.117Z,19.70
2023-01-13T11:57:44.076Z,19.80
2023-01-13T12:03:04.119Z,19.80
2023-01-13T12:08:23.571Z,19.80
2023-01-13T12:13:41.632Z,19.80
2023-01-13T12:19:20.383Z,19.70
2023-01-13T12:24:31.889Z,19.70
2023-01-13T12:29:39.192Z,19.70
2023-01-13T12:35:06.151Z,19.70
2023-01-13T12:40:33.283Z,19.70
2023-01-13T12:45:37.195Z,19.70
2023-01-13T12:50:45.913Z,19.70
2023-01-13T12:55:53.546Z,19.70
2023-01-13T13:01:12.950Z,19.70
2023-01-13T13:06:22.351Z,19.70
2023-01-13T13:12:00.564Z,19.70
2023-01-13T13:17:05.036Z,19.70
2023-01-13T13:22:43.049Z,19.70
2023-01-13T13:27:55.666Z,19.70
2023-01-13T13:39:34.129Z,19.70
2023-01-13T13:44:55.453Z,19.70
2023-01-13T13:50:10.535Z,19.70
2023-01-13T13:55:26.756Z,19.70
2023-01-13T14:00:33.615Z,19.70
2023-01-13T14:05:38.788Z,19.60
2023-01-13T14:10:46.542Z,19.70
2023-01-13T14:15:52.017Z,19.60
2023-01-13T14:20:59.964Z,19.60
2023-01-13T14:26:10.026Z,19.70
2023-01-13T14:31:15.099Z,19.70
2023-01-13T14:36:23.292Z,19.60
2023-01-13T14:41:32.774Z,19.60
2023-01-13T14:46:41.015Z,19.40
2023-01-13T14:51:45.174Z,19.30
2023-01-13T14:56:55.214Z,19.30
2023-01-13T15:01:59.608Z,19.30
2023-01-13T15:07:04.768Z,19.40
2023-01-13T15:12:39.243Z,19.50
2023-01-13T15:17:43.307Z,19.60
2023-01-13T15:22:47.382Z,19.70
2023-01-13T15:27:54.317Z,19.70
2023-01-13T15:33:00.139Z,19.80
2023-01-13T15:38:07.649Z,19.80
2023-01-13T15:43:35.098Z,19.80
2023-01-13T15:48:38.734Z,19.80
2023-01-13T15:53:43.480Z,19.80
2023-01-13T15:58:48.766Z,19.80
2023-01-13T16:03:52.862Z,19.70
2023-01-13T16:08:57.031Z,19.70
2023-01-13T16:14:02.309Z,19.80
2023-01-13T16:19:06.310Z,19.70
2023-01-13T16:24:10.058Z,19.60
2023-01-13T16:29:15.162Z,19.40
2023-01-13T16:34:19.315Z,19.30
2023-01-13T16:39:23.873Z,19.20
2023-01-13T16:44:29.022Z,19.20
2023-01-13T16:49:32.742Z,19.10
2023-01-13T16:54:36.623Z,19.10
2023-01-13T16:59:41.810Z,19.00
2023-01-13T17:04:45.519Z,19.10
2023-01-13T17:09:49.343Z,19.10
2023-01-13T17:14:54.530Z,19.20
2023-01-13T17:19:58.211Z,19.20
2023-01-13T17:25:01.946Z,19.30
2023-01-13T17:30:09.554Z,19.30
2023-01-13T17:35:18.918Z,19.30
2023-01-13T17:40:23.090Z,19.30
2023-01-13T17:45:28.391Z,19.40
2023-01-13T17:50:34.088Z,19.30
2023-01-13T17:55:37.890Z,19.30
2023-01-13T18:00:43.370Z,19.30
2023-01-13T18:05:47.179Z,19.30
2023-01-13T18:10:54.797Z,19.30
2023-01-13T18:16:07.338Z,19.40
2023-01-13T18:21:38.573Z,19.80
2023-01-13T18:26:59.984Z,20.30
2023-01-13T18:32:07.641Z,20.50
2023-01-13T18:37:13.440Z,20.70
2023-01-13T18:42:34.470Z,20.90
2023-01-13T18:47:42.235Z,21.00
2023-01-13T18:52:46.068Z,21.10
2023-01-13T18:57:50.516Z,21.10
2023-01-13T19:08:09.979Z,21.10
2023-01-13T19:13:16.128Z,21.10
2023-01-13T19:18:23.946Z,21.10
2023-01-13T19:23:27.644Z,21.00
2023-01-13T19:28:31.360Z,21.00
2023-01-13T19:33:40.297Z,20.90
2023-01-13T19:38:43.995Z,20.90
2023-01-13T19:44:05.434Z,20.90
2023-01-13T19:49:11.313Z,20.80
2023-01-13T19:54:14.956Z,20.80
2023-01-13T19:59:22.206Z,20.70
2023-01-13T20:04:33.762Z,20.70
2023-01-13T20:09:37.729Z,20.70
2023-01-13T20:14:41.493Z,20.60
2023-01-13T20:19:46.797Z,20.60
2023-01-13T20:24:54.978Z,20.50
2023-01-13T20:29:58.999Z,20.60
2023-01-13T20:35:04.332Z,20.50
2023-01-13T20:40:11.681Z,20.50
2023-01-13T20:45:20.861Z,20.50
2023-01-13T20:50:28.291Z,20.50
2023-01-13T20:55:34.767Z,20.60
2023-01-13T21:00:38.510Z,20.70
2023-01-13T21:05:43.541Z,20.80
2023-01-13T21:10:49.663Z,20.80
2023-01-13T21:15:55.350Z,20.80
2023-01-13T21:21:12.352Z,20.80
2023-01-13T21:26:18.553Z,20.80
2023-01-13T21:31:22.121Z,20.70
2023-01-13T21:36:28.771Z,20.70
2023-01-13T21:41:49.859Z,20.70
2023-01-13T21:47:10.934Z,20.70
2023-01-13T21:52:16.992Z,20.60
2023-01-13T21:57:20.599Z,20.60
2023-01-13T22:02:35.786Z,20.60
2023-01-13T22:07:42.157Z,20.50
2023-01-13T22:12:45.945Z,20.50
2023-01-13T22:17:52.794Z,20.60
2023-01-13T22:22:59.402Z,20.70
2023-01-13T22:28:06.092Z,20.90
2023-01-13T22:33:09.906Z,21.20
2023-01-13T22:38:18.397Z,21.50
2023-01-13T22:43:23.594Z,21.70
2023-01-13T22:48:27.789Z,21.70
2023-01-13T22:53:35.108Z,21.70
2023-01-13T22:58:39.030Z,21.70
2023-01-13T23:03:46.307Z,21.70
2023-01-13T23:08:52.682Z,21.70
2023-01-13T23:14:02.072Z,21.60
2023-01-13T23:19:06.981Z,21.60
2023-01-13T23:24:14.253Z,21.60
2023-01-13T23:29:18.336Z,21.50
2023-01-13T23:34:21.989Z,21.50
2023-01-13T23:39:27.530Z,21.50
2023-01-13T23:44:31.224Z,21.40
2023-01-13T23:49:34.956Z,21.40
2023-01-13T23:54:40.210Z,21.30
2023-01-13T23:59:44.716Z,21.30
